createdAt,value
2023-03-19T00:02:21.377Z,10.03
2023-03-19T00:04:47.931Z,10.02
2023-03-19T00:07:14.775Z,10.06
2023-03-19T00:09:41.496Z,10.05
2023-03-19T00:12:08.507Z,10.06
2023-03-19T00:14:35.160Z,10.07
2023-03-19T00:17:01.752Z,10.07
2023-03-19T00:19:28.316Z,10.06
2023-03-19T00:21:54.647Z,10.04
2023-03-19T00:24:21.448Z,10.01
2023-03-19T00:26:47.848Z,10.00
2023-03-19T00:29:14.772Z,10.00
2023-03-19T00:31:41.556Z,9.99
2023-03-19T00:34:08.429Z,10.00
2023-03-19T00:36:34.807Z,9.98
2023-03-19T00:39:01.153Z,10.00
2023-03-19T00:41:27.587Z,10.01
2023-03-19T00:43:54.739Z,10.02
2023-03-19T00:46:21.439Z,10.00
2023-03-19T00:48:47.875Z,10.02
2023-03-19T00:51:14.512Z,10.01
2023-03-19T00:53:44.929Z,10.01
2023-03-19T00:56:12.678Z,9.99
2023-03-19T00:58:40.904Z,10.00
2023-03-19T01:01:12.953Z,9.95
2023-03-19T01:03:39.381Z,9.89
2023-03-19T01:06:06.822Z,9.86
2023-03-19T01:08:33.262Z,9.82
2023-03-19T01:11:11.275Z,9.80
2023-03-19T01:13:37.787Z,9.75
2023-03-19T01:16:04.332Z,9.72
2023-03-19T01:18:31.340Z,9.69
2023-03-19T01:20:57.857Z,9.65
2023-03-19T01:23:24.226Z,9.61
2023-03-19T01:25:51.454Z,9.53
2023-03-19T01:28:18.609Z,9.46
2023-03-19T01:30:45.002Z,9.37
2023-03-19T01:33:11.786Z,9.29
2023-03-19T01:35:39.328Z,9.28
2023-03-19T01:38:06.202Z,9.25
2023-03-19T01:40:33.678Z,9.21
2023-03-19T01:43:13.957Z,9.16
2023-03-19T01:45:41.330Z,9.09
2023-03-19T01:48:17.295Z,9.04
2023-03-19T01:50:44.557Z,8.99
2023-03-19T01:53:12.697Z,8.93
2023-03-19T01:55:39.971Z,8.87
2023-03-19T01:58:06.670Z,8.79
2023-03-19T02:00:35.085Z,8.78
2023-03-19T02:03:02.077Z,8.73
2023-03-19T02:05:29.262Z,8.68
2023-03-19T02:07:58.140Z,8.62
2023-03-19T02:10:24.716Z,8.59
2023-03-19T02:12:51.203Z,8.59
2023-03-19T02:15:20.610Z,8.60
2023-03-19T02:17:46.986Z,8.64
2023-03-19T02:20:25.600Z,8.63
2023-03-19T02:23:14.049Z,8.65
2023-03-19T02:25:46.533Z,8.66
2023-03-19T02:28:14.722Z,8.66
2023-03-19T02:30:41.611Z,8.68
2023-03-19T02:33:12.393Z,8.69
2023-03-19T02:35:38.965Z,8.74
2023-03-19T02:38:05.460Z,8.79
2023-03-19T02:40:38.570Z,8.84
2023-03-19T02:43:04.937Z,8.85
2023-03-19T02:45:32.266Z,8.90
2023-03-19T02:48:00.203Z,8.93
2023-03-19T02:50:26.593Z,8.92
2023-03-19T02:52:53.026Z,8.91
2023-03-19T02:55:19.445Z,8.90
2023-03-19T02:57:45.843Z,8.86
2023-03-19T03:00:12.866Z,8.81
2023-03-19T03:02:39.504Z,8.78
2023-03-19T03:05:06.502Z,8.72
2023-03-19T03:07:32.901Z,8.69
2023-03-19T03:09:59.348Z,8.64
2023-03-19T03:12:26.330Z,8.60
2023-03-19T03:14:52.689Z,8.55
2023-03-19T03:17:19.216Z,8.49
2023-03-19T03:19:45.662Z,8.46
2023-03-19T03:22:12.085Z,8.43
2023-03-19T03:24:39.207Z,8.41
2023-03-19T03:27:05.845Z,8.37
2023-03-19T03:29:32.515Z,8.39
2023-03-19T03:31:58.873Z,8.41
2023-03-19T03:34:25.547Z,8.41
2023-03-19T03:36:52.082Z,8.45
2023-03-19T03:39:19.192Z,8.52
2023-03-19T03:41:45.743Z,8.53
2023-03-19T03:44:12.260Z,8.54
2023-03-19T03:46:38.645Z,8.56
2023-03-19T03:49:05.032Z,8.58
2023-03-19T03:51:31.396Z,8.59
2023-03-19T03:53:57.850Z,8.59
2023-03-19T03:56:24.242Z,8.58
2023-03-19T03:58:51.229Z,8.58
2023-03-19T04:01:17.820Z,8.58
2023-03-19T04:03:45.296Z,8.56
2023-03-19T04:06:19.293Z,8.52
2023-03-19T04:08:45.929Z,8.48
2023-03-19T04:11:12.732Z,8.45
2023-03-19T04:13:39.086Z,8.51
2023-03-19T04:16:06.612Z,8.64
2023-03-19T04:18:32.977Z,8.60
2023-03-19T04:20:59.388Z,8.56
2023-03-19T04:23:26.085Z,8.52
2023-03-19T04:25:52.722Z,8.43
2023-03-19T04:28:19.080Z,8.36
2023-03-19T04:30:45.658Z,8.31
2023-03-19T04:33:13.066Z,8.27
2023-03-19T04:35:39.716Z,8.23
2023-03-19T04:38:06.058Z,8.18
2023-03-19T04:40:33.207Z,8.15
2023-03-19T04:42:59.929Z,8.12
2023-03-19T04:45:26.956Z,8.11
2023-03-19T04:47:54.046Z,8.09
2023-03-19T04:50:20.442Z,8.05
2023-03-19T04:52:47.038Z,8.02
2023-03-19T04:55:13.412Z,8.00
2023-03-19T04:57:39.984Z,7.99
2023-03-19T05:00:07.003Z,7.99
2023-03-19T05:02:33.368Z,7.99
2023-03-19T05:04:59.791Z,8.00
2023-03-19T05:07:26.378Z,8.01
2023-03-19T05:09:52.742Z,8.02
2023-03-19T05:12:19.094Z,8.02
2023-03-19T05:14:46.051Z,8.03
2023-03-19T05:17:15.132Z,8.03
2023-03-19T05:19:41.488Z,8.02
2023-03-19T05:22:08.052Z,8.03
2023-03-19T05:24:34.524Z,8.06
2023-03-19T05:27:01.107Z,8.07
2023-03-19T05:29:27.900Z,8.04
2023-03-19T05:31:54.297Z,8.04
2023-03-19T05:34:20.814Z,8.02
2023-03-19T05:36:47.247Z,8.04
2023-03-19T05:39:13.622Z,8.02
2023-03-19T05:41:39.968Z,8.02
2023-03-19T05:44:06.964Z,8.00
2023-03-19T05:46:33.404Z,7.98
2023-03-19T05:48:59.992Z,7.97
2023-03-19T05:51:26.669Z,7.94
2023-03-19T05:53:53.012Z,7.91
2023-03-19T05:56:19.415Z,7.89
2023-03-19T05:58:45.991Z,7.89
2023-03-19T06:01:13.507Z,7.90
2023-03-19T06:03:39.912Z,7.91
2023-03-19T06:06:06.504Z,7.91
2023-03-19T06:08:32.927Z,7.94
2023-03-19T06:10:59.314Z,7.97
2023-03-19T06:13:26.346Z,8.03
2023-03-19T06:15:52.741Z,8.08
2023-03-19T06:18:19.146Z,8.12
2023-03-19T06:20:46.805Z,8.15
2023-03-19T06:23:15.858Z,8.16
2023-03-19T06:25:42.700Z,8.18
2023-03-19T06:28:09.140Z,8.22
2023-03-19T06:30:35.963Z,8.24
2023-03-19T06:33:02.635Z,8.26
2023-03-19T06:35:29.267Z,8.28
2023-03-19T06:37:55.826Z,8.27
2023-03-19T06:40:22.786Z,8.31
2023-03-19T06:42:49.375Z,8.31
2023-03-19T06:45:16.526Z,8.32
2023-03-19T06:47:43.432Z,8.37
2023-03-19T06:50:13.867Z,8.43
2023-03-19T06:52:40.827Z,8.50
2023-03-19T06:55:08.123Z,8.56
2023-03-19T06:57:35.467Z,8.62
2023-03-19T07:00:02.013Z,8.70
2023-03-19T07:02:28.353Z,8.78
2023-03-19T07:04:54.904Z,8.91
2023-03-19T07:07:21.316Z,9.02
2023-03-19T07:09:47.771Z,9.10
2023-03-19T07:12:14.453Z,9.21
2023-03-19T07:14:40.810Z,9.50
2023-03-19T07:17:09.840Z,9.65
2023-03-19T07:19:36.769Z,9.70
2023-03-19T07:22:03.739Z,9.73
2023-03-19T07:24:30.361Z,9.78
2023-03-19T07:26:57.286Z,9.86
2023-03-19T07:29:23.654Z,9.92
2023-03-19T07:31:50.331Z,10.10
2023-03-19T07:34:16.736Z,10.35
2023-03-19T07:36:43.100Z,10.47
2023-03-19T07:39:09.933Z,10.63
2023-03-19T07:41:36.800Z,10.75
2023-03-19T07:44:03.211Z,10.81
2023-03-19T07:46:29.621Z,10.91
2023-03-19T07:48:56.333Z,10.95
2023-03-19T07:51:22.886Z,10.99
2023-03-19T07:53:49.351Z,11.00
2023-03-19T07:56:15.764Z,10.98
2023-03-19T07:58:42.241Z,11.00
2023-03-19T08:01:08.682Z,11.09
2023-03-19T08:03:35.393Z,11.14
2023-03-19T08:06:02.375Z,11.19
2023-03-19T08:08:28.776Z,11.21
2023-03-19T08:10:55.441Z,11.23
2023-03-19T08:13:22.560Z,11.27
2023-03-19T08:15:50.974Z,11.31
2023-03-19T08:18:18.008Z,11.35
2023-03-19T08:20:45.542Z,11.39
2023-03-19T08:23:12.166Z,11.39
2023-03-19T08:25:38.825Z,11.41
2023-03-19T08:28:05.402Z,11.39
2023-03-19T08:30:32.079Z,11.36
2023-03-19T08:32:58.772Z,11.34
2023-03-19T08:35:27.013Z,11.38
2023-03-19T08:37:54.542Z,11.37
2023-03-19T08:40:21.263Z,11.34
2023-03-19T08:42:47.664Z,11.27
2023-03-19T08:45:14.650Z,11.18
2023-03-19T08:47:41.546Z,11.11
2023-03-19T08:50:08.239Z,11.01
2023-03-19T08:52:34.687Z,10.96
2023-03-19T08:55:01.054Z,10.90
2023-03-19T08:57:27.438Z,10.78
2023-03-19T08:59:53.869Z,10.71
2023-03-19T09:02:20.450Z,10.64
2023-03-19T09:04:46.918Z,10.64
2023-03-19T09:07:15.566Z,10.60
2023-03-19T09:09:42.801Z,10.60
2023-03-19T09:12:10.287Z,10.61
2023-03-19T09:14:36.761Z,10.63
2023-03-19T09:17:04.092Z,10.65
2023-03-19T09:19:30.463Z,10.77
2023-03-19T09:21:56.835Z,11.00
2023-03-19T09:24:23.227Z,11.12
2023-03-19T09:26:49.658Z,11.22
2023-03-19T09:29:16.719Z,11.34
2023-03-19T09:31:43.318Z,11.43
2023-03-19T09:34:09.702Z,11.48
2023-03-19T09:36:37.780Z,11.51
2023-03-19T09:39:05.398Z,11.56
2023-03-19T09:41:32.036Z,11.60
2023-03-19T09:44:02.159Z,11.66
2023-03-19T09:46:56.642Z,11.73
2023-03-19T09:49:28.491Z,11.84
2023-03-19T09:51:59.174Z,11.97
2023-03-19T09:54:28.290Z,12.02
2023-03-19T09:56:54.834Z,12.13
2023-03-19T09:59:24.938Z,12.28
2023-03-19T10:02:24.738Z,12.48
2023-03-19T10:05:05.743Z,12.66
2023-03-19T10:07:57.651Z,12.74
2023-03-19T10:10:59.570Z,12.83
2023-03-19T10:13:43.191Z,12.88
2023-03-19T10:16:14.186Z,12.90
2023-03-19T10:18:47.097Z,12.92
2023-03-19T10:21:16.275Z,12.94
2023-03-19T10:23:48.359Z,13.07
2023-03-19T10:26:20.038Z,13.18
2023-03-19T10:29:11.239Z,13.31
2023-03-19T10:32:00.870Z,13.38
2023-03-19T10:34:31.933Z,13.57
2023-03-19T10:37:03.920Z,13.72
2023-03-19T10:39:34.046Z,13.90
2023-03-19T10:42:20.008Z,13.98
2023-03-19T10:45:28.804Z,14.18
2023-03-19T10:48:00.246Z,14.38
2023-03-19T10:50:34.103Z,14.36
2023-03-19T10:53:25.856Z,14.50
2023-03-19T10:55:57.625Z,14.75
2023-03-19T10:58:26.428Z,14.92
2023-03-19T11:00:57.703Z,14.97
2023-03-19T11:03:32.461Z,15.08
2023-03-19T11:06:32.041Z,15.24
2023-03-19T11:09:00.606Z,15.25
2023-03-19T11:11:33.597Z,15.41
2023-03-19T11:14:06.477Z,15.46
2023-03-19T11:16:33.493Z,15.48
2023-03-19T11:18:59.863Z,15.71
2023-03-19T11:21:30.478Z,15.63
2023-03-19T11:24:02.715Z,15.66
2023-03-19T11:26:29.441Z,15.82
2023-03-19T11:29:02.395Z,15.98
2023-03-19T11:31:34.888Z,15.97
2023-03-19T11:34:13.634Z,15.97
2023-03-19T11:36:47.198Z,15.91
2023-03-19T11:40:08.131Z,15.76
2023-03-19T11:43:03.793Z,15.62
2023-03-19T11:45:42.110Z,15.54
2023-03-19T11:48:39.800Z,15.80
2023-03-19T11:51:18.169Z,15.86
2023-03-19T11:53:59.336Z,15.85
2023-03-19T11:56:43.261Z,16.13
2023-03-19T11:59:12.658Z,16.13
2023-03-19T12:01:54.521Z,16.39
2023-03-19T12:04:35.882Z,16.92
2023-03-19T12:07:26.677Z,17.55
2023-03-19T12:10:30.692Z,17.90
2023-03-19T12:13:16.980Z,18.24
2023-03-19T12:16:07.672Z,18.23
2023-03-19T12:18:49.273Z,18.26
2023-03-19T12:21:19.187Z,18.49
2023-03-19T12:23:52.520Z,18.07
2023-03-19T12:26:18.935Z,17.72
2023-03-19T12:29:02.065Z,17.91
2023-03-19T12:31:33.584Z,18.01
2023-03-19T12:34:25.010Z,18.33
2023-03-19T12:37:04.041Z,18.57
2023-03-19T12:39:33.527Z,18.92
2023-03-19T12:41:59.905Z,19.38
2023-03-19T12:44:46.960Z,19.41
2023-03-19T12:47:16.793Z,19.17
2023-03-19T12:50:04.847Z,19.23
2023-03-19T12:52:35.877Z,18.78
2023-03-19T12:55:08.621Z,18.39
2023-03-19T12:57:46.102Z,18.23
2023-03-19T13:00:20.246Z,18.12
2023-03-19T13:03:11.792Z,17.96
2023-03-19T13:05:41.956Z,17.69
2023-03-19T13:08:44.441Z,17.50
2023-03-19T13:11:13.804Z,17.28
2023-03-19T13:13:44.480Z,17.10
2023-03-19T13:16:35.783Z,17.02
2023-03-19T13:19:36.352Z,16.94
2023-03-19T13:22:06.883Z,16.85
2023-03-19T13:24:40.580Z,16.79
2023-03-19T13:27:09.827Z,16.68
2023-03-19T13:29:37.367Z,16.67
2023-03-19T13:32:09.051Z,16.60
2023-03-19T13:34:36.537Z,16.45
2023-03-19T13:37:18.686Z,16.49
2023-03-19T13:39:45.700Z,16.35
2023-03-19T13:42:42.134Z,16.27
2023-03-19T13:45:29.274Z,16.32
2023-03-19T13:47:58.440Z,16.30
2023-03-19T13:50:26.322Z,16.22
2023-03-19T13:52:57.176Z,16.42
2023-03-19T13:55:31.035Z,16.60
2023-03-19T13:58:12.615Z,16.70
2023-03-19T14:00:45.210Z,16.58
2023-03-19T14:03:20.638Z,16.43
2023-03-19T14:05:47.954Z,16.34
2023-03-19T14:08:32.597Z,16.26
2023-03-19T14:11:00.016Z,16.29
2023-03-19T14:13:34.450Z,16.13
2023-03-19T14:16:23.745Z,16.00
2023-03-19T14:18:50.650Z,15.92
2023-03-19T14:21:30.874Z,15.91
2023-03-19T14:23:57.822Z,15.78
2023-03-19T14:26:24.564Z,15.54
2023-03-19T14:28:57.806Z,15.40
2023-03-19T14:31:34.639Z,15.39
2023-03-19T14:34:52.201Z,15.42
2023-03-19T14:37:22.058Z,15.60
2023-03-19T14:40:10.639Z,15.67
2023-03-19T14:43:14.603Z,15.73
2023-03-19T14:45:42.302Z,15.75
2023-03-19T14:48:21.017Z,15.87
2023-03-19T14:50:59.256Z,15.96
2023-03-19T14:53:34.392Z,16.05
2023-03-19T14:56:03.527Z,16.13
2023-03-19T14:58:29.875Z,16.20
2023-03-19T15:00:56.586Z,16.21
2023-03-19T15:03:37.140Z,16.23
2023-03-19T15:06:04.704Z,16.33
2023-03-19T15:08:32.246Z,16.28
2023-03-19T15:11:19.847Z,16.22
2023-03-19T15:14:04.727Z,16.20
2023-03-19T15:17:05.432Z,16.21
2023-03-19T15:19:32.197Z,16.34
2023-03-19T15:22:11.878Z,16.40
2023-03-19T15:24:38.304Z,16.35
2023-03-19T15:27:17.162Z,16.47
2023-03-19T15:29:44.208Z,16.50
2023-03-19T15:32:11.233Z,16.70
2023-03-19T15:34:39.462Z,16.97
2023-03-19T15:37:13.722Z,17.07
2023-03-19T15:39:43.554Z,16.99
2023-03-19T15:42:10.099Z,16.97
2023-03-19T15:45:09.462Z,16.89
2023-03-19T15:47:40.979Z,16.77
2023-03-19T15:50:16.288Z,16.68
2023-03-19T15:52:46.152Z,16.56
2023-03-19T15:55:12.968Z,16.58
2023-03-19T15:57:39.696Z,16.67
2023-03-19T16:00:09.836Z,16.49
2023-03-19T16:02:37.247Z,16.44
2023-03-19T16:05:22.085Z,16.42
2023-03-19T16:07:54.719Z,16.36
2023-03-19T16:10:33.390Z,16.25
2023-03-19T16:13:05.070Z,16.14
2023-03-19T16:15:31.497Z,16.05
2023-03-19T16:18:18.071Z,15.97
2023-03-19T16:20:46.033Z,15.90
2023-03-19T16:23:16.500Z,15.74
2023-03-19T16:25:46.606Z,15.67
2023-03-19T16:28:19.215Z,15.57
2023-03-19T16:30:46.506Z,15.55
2023-03-19T16:33:13.064Z,15.46
2023-03-19T16:35:39.694Z,15.38
2023-03-19T16:38:12.894Z,15.19
2023-03-19T16:40:47.061Z,14.99
2023-03-19T16:43:17.318Z,14.97
2023-03-19T16:45:44.151Z,14.95
2023-03-19T16:48:10.596Z,14.95
2023-03-19T16:50:41.154Z,14.92
2023-03-19T16:53:19.947Z,14.86
2023-03-19T16:55:46.301Z,14.77
2023-03-19T16:58:12.632Z,14.68
2023-03-19T17:00:39.367Z,14.50
2023-03-19T17:03:11.046Z,14.30
2023-03-19T17:05:37.576Z,14.16
2023-03-19T17:08:04.097Z,14.08
2023-03-19T17:10:31.866Z,14.11
2023-03-19T17:12:58.489Z,14.11
2023-03-19T17:15:28.029Z,14.05
2023-03-19T17:17:54.642Z,14.01
2023-03-19T17:20:28.104Z,13.88
2023-03-19T17:22:54.559Z,13.86
2023-03-19T17:25:21.331Z,13.85
2023-03-19T17:27:47.835Z,13.86
2023-03-19T17:30:14.365Z,13.79
2023-03-19T17:32:42.862Z,13.68
2023-03-19T17:35:16.640Z,13.54
2023-03-19T17:37:43.068Z,13.44
2023-03-19T17:40:27.235Z,13.30
2023-03-19T17:42:54.396Z,13.18
2023-03-19T17:45:25.128Z,13.22
2023-03-19T17:47:53.526Z,13.24
2023-03-19T17:50:25.295Z,13.13
2023-03-19T17:52:54.654Z,13.05
2023-03-19T17:55:24.142Z,12.97
2023-03-19T17:57:51.212Z,12.89
2023-03-19T18:00:18.844Z,12.86
2023-03-19T18:02:46.013Z,12.85
2023-03-19T18:05:20.405Z,12.83
2023-03-19T18:07:47.690Z,12.95
2023-03-19T18:10:18.392Z,13.20
2023-03-19T18:12:44.832Z,13.36
2023-03-19T18:15:12.009Z,13.45
2023-03-19T18:17:39.058Z,13.45
2023-03-19T18:20:06.199Z,13.43
2023-03-19T18:22:32.705Z,13.38
2023-03-19T18:24:59.123Z,13.32
2023-03-19T18:27:25.629Z,13.22
2023-03-19T18:29:52.112Z,13.06
2023-03-19T18:32:25.207Z,12.87
2023-03-19T18:34:51.594Z,12.59
2023-03-19T18:37:18.109Z,12.36
2023-03-19T18:39:44.819Z,12.18
2023-03-19T18:42:12.119Z,12.02
2023-03-19T18:44:38.470Z,11.86
2023-03-19T18:47:04.911Z,11.81
2023-03-19T18:49:31.473Z,11.75
2023-03-19T18:52:05.058Z,11.68
2023-03-19T18:54:32.043Z,11.68
2023-03-19T18:56:59.519Z,11.64
2023-03-19T18:59:27.727Z,11.55
2023-03-19T19:01:56.400Z,11.49
2023-03-19T19:04:22.790Z,11.46
2023-03-19T19:06:49.150Z,11.44
2023-03-19T19:09:15.575Z,11.39
2023-03-19T19:11:42.312Z,11.36
2023-03-19T19:14:15.773Z,11.35
2023-03-19T19:16:42.232Z,11.35
2023-03-19T19:19:21.052Z,11.34
2023-03-19T19:21:47.412Z,11.27
2023-03-19T19:24:14.940Z,11.21
2023-03-19T19:26:45.389Z,11.13
2023-03-19T19:29:25.548Z,11.07
2023-03-19T19:31:52.906Z,11.03
2023-03-19T19:34:19.294Z,10.98
2023-03-19T19:36:45.725Z,11.00
2023-03-19T19:39:12.335Z,10.99
2023-03-19T19:41:38.866Z,11.00
2023-03-19T19:44:05.386Z,10.99
2023-03-19T19:46:32.291Z,10.97
2023-03-19T19:48:59.060Z,10.94
2023-03-19T19:51:26.788Z,10.95
2023-03-19T19:53:53.352Z,10.97
2023-03-19T19:56:21.681Z,10.98
2023-03-19T19:58:48.926Z,10.98
2023-03-19T20:01:17.268Z,10.96
2023-03-19T20:03:43.841Z,10.96
2023-03-19T20:06:10.310Z,10.93
2023-03-19T20:08:36.753Z,10.94
2023-03-19T20:11:03.913Z,10.93
2023-03-19T20:13:34.168Z,10.91
2023-03-19T20:16:01.060Z,10.93
2023-03-19T20:18:30.967Z,10.91
2023-03-19T20:20:57.936Z,10.90
2023-03-19T20:23:24.466Z,10.90
2023-03-19T20:25:51.065Z,10.90
2023-03-19T20:28:26.233Z,10.93
2023-03-19T20:30:53.889Z,10.91
2023-03-19T20:33:20.883Z,10.89
2023-03-19T20:35:47.627Z,10.87
2023-03-19T20:38:14.508Z,10.86
2023-03-19T20:40:43.213Z,10.86
2023-03-19T20:43:20.886Z,10.86
2023-03-19T20:45:47.289Z,10.86
2023-03-19T20:48:14.238Z,10.84
2023-03-19T20:50:41.229Z,10.84
2023-03-19T20:53:07.588Z,10.82
2023-03-19T20:55:34.881Z,10.78
2023-03-19T20:58:03.788Z,10.83
2023-03-19T21:00:31.927Z,10.85
2023-03-19T21:02:59.159Z,10.86
2023-03-19T21:05:34.451Z,10.88
2023-03-19T21:08:01.291Z,10.90
2023-03-19T21:10:33.741Z,10.89
2023-03-19T21:13:00.743Z,10.86
2023-03-19T21:15:27.648Z,10.85
2023-03-19T21:17:54.384Z,10.85
2023-03-19T21:20:23.420Z,10.83
2023-03-19T21:23:10.229Z,10.82
2023-03-19T21:25:37.108Z,10.78
2023-03-19T21:28:05.843Z,10.76
2023-03-19T21:30:41.376Z,10.76
2023-03-19T21:33:24.484Z,10.75
2023-03-19T21:35:51.964Z,10.75
2023-03-19T21:38:18.322Z,10.74
2023-03-19T21:40:44.755Z,10.73
2023-03-19T21:43:44.123Z,10.71
2023-03-19T21:46:24.286Z,10.71
2023-03-19T21:48:51.242Z,10.71
2023-03-19T21:51:17.621Z,10.72
2023-03-19T21:53:45.523Z,10.71
2023-03-19T21:56:19.602Z,10.70
2023-03-19T21:58:46.718Z,10.70
2023-03-19T22:01:18.096Z,10.70
2023-03-19T22:03:44.761Z,10.69
2023-03-19T22:06:12.252Z,10.70
2023-03-19T22:08:38.659Z,10.69
2023-03-19T22:11:10.509Z,10.71
2023-03-19T22:13:37.554Z,10.72
2023-03-19T22:16:04.449Z,10.79
2023-03-19T22:18:32.000Z,10.87
2023-03-19T22:20:58.408Z,10.87
2023-03-19T22:23:25.196Z,10.89
2023-03-19T22:25:51.600Z,10.89
2023-03-19T22:28:21.430Z,10.92
2023-03-19T22:30:47.970Z,10.94
2023-03-19T22:33:19.681Z,10.89
2023-03-19T22:35:46.381Z,10.89
2023-03-19T22:38:12.763Z,10.88
2023-03-19T22:40:39.309Z,10.86
2023-03-19T22:43:14.200Z,10.82
2023-03-19T22:45:40.983Z,10.85
2023-03-19T22:48:08.084Z,10.82
2023-03-19T22:50:34.461Z,10.80
2023-03-19T22:53:01.227Z,10.81
2023-03-19T22:55:27.649Z,10.77
2023-03-19T22:57:54.008Z,10.74
2023-03-19T23:00:23.452Z,10.73
2023-03-19T23:02:55.871Z,10.72
2023-03-19T23:05:27.980Z,10.70
2023-03-19T23:07:55.049Z,10.69
2023-03-19T23:10:22.231Z,10.70
2023-03-19T23:12:48.822Z,10.70
2023-03-19T23:15:15.360Z,10.68
2023-03-19T23:17:42.221Z,10.71
2023-03-19T23:20:17.560Z,10.70
2023-03-19T23:22:45.643Z,10.69
2023-03-19T23:25:16.046Z,10.68
2023-03-19T23:27:42.899Z,10.66
2023-03-19T23:30:24.329Z,10.66
2023-03-19T23:32:51.034Z,10.65
2023-03-19T23:35:19.424Z,10.63
2023-03-19T23:37:45.779Z,10.62
2023-03-19T23:40:13.692Z,10.62
2023-03-19T23:42:42.356Z,10.58
2023-03-19T23:45:21.607Z,10.57
2023-03-19T23:47:47.956Z,10.54
2023-03-19T23:50:14.545Z,10.53
2023-03-19T23:52:41.169Z,10.53
2023-03-19T23:55:08.170Z,10.50
2023-03-19T23:57:34.893Z,10.48
